createdAt,value
2018-02-18T00:00:17.763Z,80.10
2018-02-18T00:02:45.496Z,80.46
2018-02-18T00:05:13.264Z,80.93
2018-02-18T00:07:41.961Z,80.98
2018-02-18T00:10:09.761Z,80.92
2018-02-18T00:12:37.529Z,80.56
2018-02-18T00:15:10.752Z,80.53
2018-02-18T00:17:38.511Z,80.35
2018-02-18T00:20:06.256Z,80.44
2018-02-18T00:22:33.985Z,80.61
2018-02-18T00:25:01.728Z,80.28
2018-02-18T00:27:29.453Z,79.91
2018-02-18T00:29:57.244Z,79.60
2018-02-18T00:32:24.983Z,79.98
2018-02-18T00:34:52.823Z,80.02
2018-02-18T00:37:20.542Z,80.20
2018-02-18T00:39:48.284Z,80.20
2018-02-18T00:42:16.027Z,80.04
2018-02-18T00:44:43.787Z,79.66
2018-02-18T00:47:11.529Z,79.42
2018-02-18T00:49:39.307Z,79.37
2018-02-18T00:52:07.083Z,79.80
2018-02-18T00:54:34.849Z,80.04
2018-02-18T00:57:02.575Z,80.05
2018-02-18T00:59:30.356Z,80.03
2018-02-18T01:01:58.094Z,79.98
2018-02-18T01:04:25.814Z,80.17
2018-02-18T01:06:53.584Z,80.39
2018-02-18T01:09:21.354Z,80.24
2018-02-18T01:11:49.128Z,80.28
2018-02-18T01:14:16.843Z,80.64
2018-02-18T01:16:44.593Z,80.56
2018-02-18T01:19:12.328Z,80.40
2018-02-18T01:21:40.068Z,80.67
2018-02-18T01:24:07.834Z,81.00
2018-02-18T01:26:35.567Z,81.07
2018-02-18T01:29:03.351Z,80.85
2018-02-18T01:31:31.102Z,80.92
2018-02-18T01:33:58.800Z,80.67
2018-02-18T01:36:27.374Z,80.22
2018-02-18T01:38:55.150Z,79.82
2018-02-18T01:41:23.834Z,79.80
2018-02-18T01:43:51.667Z,79.33
2018-02-18T01:46:19.394Z,79.80
2018-02-18T01:48:47.237Z,79.98
2018-02-18T01:51:15.051Z,80.48
2018-02-18T01:53:42.787Z,80.85
2018-02-18T01:56:10.546Z,81.04
2018-02-18T01:58:38.340Z,81.33
2018-02-18T02:01:06.109Z,81.50
2018-02-18T02:03:33.937Z,81.56
2018-02-18T02:06:01.715Z,81.75
2018-02-18T02:08:29.509Z,81.92
2018-02-18T02:10:57.264Z,81.89
2018-02-18T02:13:25.028Z,81.14
2018-02-18T02:15:52.841Z,80.87
2018-02-18T02:18:20.648Z,81.11
2018-02-18T02:20:48.409Z,81.12
2018-02-18T02:23:16.221Z,80.71
2018-02-18T02:25:43.956Z,80.47
2018-02-18T02:28:11.765Z,80.18
2018-02-18T02:30:39.482Z,80.60
2018-02-18T02:33:07.281Z,81.17
2018-02-18T02:35:35.062Z,81.65
2018-02-18T02:38:02.819Z,82.47
2018-02-18T02:40:30.541Z,83.62
2018-02-18T02:42:58.297Z,84.40
2018-02-18T02:45:26.042Z,85.01
2018-02-18T02:47:53.833Z,85.39
2018-02-18T02:50:21.643Z,85.76
2018-02-18T02:52:49.422Z,85.55
2018-02-18T02:55:17.180Z,85.49
2018-02-18T02:57:44.888Z,85.32
2018-02-18T03:00:12.655Z,85.43
2018-02-18T03:02:40.499Z,85.54
2018-02-18T03:05:08.298Z,85.92
2018-02-18T03:07:36.115Z,86.27
2018-02-18T03:10:03.881Z,86.40
2018-02-18T03:12:31.685Z,86.50
2018-02-18T03:14:59.518Z,86.62
2018-02-18T03:17:27.431Z,86.84
2018-02-18T03:19:55.283Z,87.11
2018-02-18T03:22:23.103Z,87.70
2018-02-18T03:24:50.861Z,88.08
2018-02-18T03:27:18.702Z,88.30
2018-02-18T03:29:46.630Z,88.40
2018-02-18T03:32:14.640Z,88.56
2018-02-18T03:34:42.514Z,88.65
2018-02-18T03:37:10.319Z,88.70
2018-02-18T03:39:38.168Z,88.60
2018-02-18T03:42:05.963Z,88.48
2018-02-18T03:44:33.793Z,88.10
2018-02-18T03:47:01.556Z,87.92
2018-02-18T03:49:29.358Z,87.98
2018-02-18T03:51:57.134Z,88.18
2018-02-18T03:54:24.939Z,88.42
2018-02-18T03:56:52.788Z,88.51
2018-02-18T03:59:21.050Z,88.67
2018-02-18T04:01:48.875Z,88.79
2018-02-18T04:04:17.515Z,89.01
2018-02-18T04:06:45.386Z,89.12
2018-02-18T04:09:13.128Z,88.99
2018-02-18T04:11:41.068Z,89.02
2018-02-18T04:14:08.856Z,88.90
2018-02-18T04:16:37.267Z,88.89
2018-02-18T04:19:05.028Z,88.93
2018-02-18T04:21:32.816Z,88.81
2018-02-18T04:24:00.668Z,88.80
2018-02-18T04:26:28.778Z,88.91
2018-02-18T04:28:56.524Z,89.08
2018-02-18T04:31:24.356Z,89.11
2018-02-18T04:33:52.178Z,89.15
2018-02-18T04:36:19.967Z,89.18
2018-02-18T04:38:47.770Z,89.16
2018-02-18T04:41:15.573Z,89.12
2018-02-18T04:43:43.401Z,89.23
2018-02-18T04:46:11.208Z,89.13
2018-02-18T04:48:38.960Z,88.63
2018-02-18T04:51:06.753Z,88.62
2018-02-18T04:53:34.593Z,88.66
2018-02-18T04:56:02.376Z,88.82
2018-02-18T04:58:30.212Z,88.85
2018-02-18T05:00:58.824Z,88.71
2018-02-18T05:03:27.410Z,88.63
2018-02-18T05:05:55.556Z,89.02
2018-02-18T05:08:23.353Z,89.22
2018-02-18T05:10:51.226Z,89.06
2018-02-18T05:13:19.532Z,89.24
2018-02-18T05:15:47.340Z,89.23
2018-02-18T05:18:15.179Z,89.33
2018-02-18T05:20:42.986Z,89.52
2018-02-18T05:23:10.854Z,89.82
2018-02-18T05:25:39.109Z,89.95
2018-02-18T05:28:07.043Z,90.10
2018-02-18T05:30:35.849Z,90.46
2018-02-18T05:33:03.885Z,90.69
2018-02-18T05:35:31.804Z,90.75
2018-02-18T05:38:01.185Z,90.83
2018-02-18T05:40:29.051Z,90.68
2018-02-18T05:42:57.761Z,90.62
2018-02-18T05:45:25.706Z,90.53
2018-02-18T05:47:53.607Z,90.64
2018-02-18T05:50:21.411Z,90.83
2018-02-18T05:52:50.107Z,91.16
2018-02-18T05:55:17.929Z,91.54
2018-02-18T05:57:45.922Z,91.61
2018-02-18T06:00:13.786Z,91.38
2018-02-18T06:02:41.630Z,91.10
2018-02-18T06:05:09.434Z,90.87
2018-02-18T06:07:37.299Z,90.86
2018-02-18T06:10:05.217Z,90.76
2018-02-18T06:12:33.154Z,90.69
2018-02-18T06:15:00.977Z,90.88
2018-02-18T06:17:28.778Z,91.17
2018-02-18T06:19:56.648Z,91.28
2018-02-18T06:22:24.451Z,91.19
2018-02-18T06:24:52.332Z,91.02
2018-02-18T06:27:20.170Z,91.12
2018-02-18T06:29:48.102Z,91.46
2018-02-18T06:32:15.997Z,91.68
2018-02-18T06:34:43.873Z,91.84
2018-02-18T06:37:11.805Z,92.17
2018-02-18T06:39:39.721Z,92.52
2018-02-18T06:42:07.669Z,92.59
2018-02-18T06:44:36.644Z,92.49
2018-02-18T06:47:04.619Z,92.33
2018-02-18T06:49:32.665Z,92.42
2018-02-18T06:52:00.566Z,92.39
2018-02-18T06:54:28.672Z,92.37
2018-02-18T06:56:56.722Z,92.43
2018-02-18T06:59:24.753Z,92.50
2018-02-18T07:01:52.698Z,92.48
2018-02-18T07:04:20.629Z,92.56
2018-02-18T07:06:48.488Z,92.60
2018-02-18T07:09:16.376Z,92.37
2018-02-18T07:11:44.593Z,92.40
2018-02-18T07:14:13.585Z,92.32
2018-02-18T07:16:41.560Z,92.41
2018-02-18T07:19:09.406Z,92.38
2018-02-18T07:21:37.251Z,92.49
2018-02-18T07:24:05.255Z,92.66
2018-02-18T07:26:33.163Z,92.52
2018-02-18T07:29:01.038Z,92.56
2018-02-18T07:31:29.194Z,92.54
2018-02-18T07:33:57.179Z,92.42
2018-02-18T07:36:25.702Z,92.36
2018-02-18T07:38:53.720Z,92.27
2018-02-18T07:41:21.620Z,92.27
2018-02-18T07:43:49.449Z,92.15
2018-02-18T07:46:17.215Z,91.90
2018-02-18T07:48:45.130Z,91.66
2018-02-18T07:51:13.057Z,91.72
2018-02-18T07:53:41.748Z,91.63
2018-02-18T07:56:09.576Z,91.62
2018-02-18T07:58:37.628Z,91.60
2018-02-18T08:01:05.612Z,91.56
2018-02-18T08:03:33.526Z,91.59
2018-02-18T08:06:01.702Z,91.52
2018-02-18T08:08:29.979Z,91.34
2018-02-18T08:10:57.932Z,91.36
2018-02-18T08:13:25.871Z,91.37
2018-02-18T08:15:53.816Z,91.07
2018-02-18T08:18:21.847Z,90.81
2018-02-18T08:20:49.835Z,90.61
2018-02-18T08:23:18.615Z,90.75
2018-02-18T08:25:47.217Z,90.37
2018-02-18T08:28:15.132Z,90.08
2018-02-18T08:30:42.991Z,90.16
2018-02-18T08:33:10.815Z,89.80
2018-02-18T08:35:39.460Z,89.71
2018-02-18T08:38:07.426Z,89.35
2018-02-18T08:40:35.285Z,89.55
2018-02-18T08:43:03.101Z,89.28
2018-02-18T08:45:30.984Z,88.97
2018-02-18T08:47:58.876Z,88.61
2018-02-18T08:50:26.760Z,88.61
2018-02-18T08:52:54.508Z,88.44
2018-02-18T08:55:22.313Z,88.10
2018-02-18T08:57:50.113Z,87.78
2018-02-18T09:00:18.168Z,86.80
2018-02-18T09:02:46.033Z,86.37
2018-02-18T09:05:13.885Z,86.65
2018-02-18T09:07:41.687Z,86.08
2018-02-18T09:10:09.551Z,86.00
2018-02-18T09:12:37.707Z,86.19
2018-02-18T09:15:05.786Z,85.73
2018-02-18T09:17:33.557Z,84.99
2018-02-18T09:20:02.243Z,84.57
2018-02-18T09:22:30.103Z,84.50
2018-02-18T09:24:58.045Z,83.68
2018-02-18T09:27:25.977Z,83.87
2018-02-18T09:29:53.866Z,83.62
2018-02-18T09:32:21.689Z,83.11
2018-02-18T09:34:49.566Z,83.31
2018-02-18T09:37:17.429Z,83.39
2018-02-18T09:39:45.537Z,82.57
2018-02-18T09:42:13.333Z,81.82
2018-02-18T09:44:41.167Z,81.70
2018-02-18T09:47:08.880Z,81.61
2018-02-18T09:49:36.606Z,80.96
2018-02-18T09:52:04.554Z,80.40
2018-02-18T09:54:32.370Z,80.22
2018-02-18T09:57:00.086Z,79.74
2018-02-18T09:59:27.838Z,79.21
2018-02-18T10:01:56.003Z,77.89
2018-02-18T10:04:23.750Z,78.03
2018-02-18T10:06:51.544Z,77.60
2018-02-18T10:09:32.595Z,76.22
2018-02-18T10:15:14.073Z,75.16
2018-02-18T10:17:41.670Z,74.99
2018-02-18T10:20:09.335Z,73.78
2018-02-18T10:22:36.946Z,72.58
2018-02-18T10:25:04.651Z,71.71
2018-02-18T10:27:32.252Z,71.83
2018-02-18T10:29:59.900Z,71.08
2018-02-18T10:32:27.559Z,70.33
2018-02-18T10:34:55.191Z,69.68
2018-02-18T10:37:22.855Z,68.65
2018-02-18T10:39:50.439Z,68.26
2018-02-18T10:42:18.041Z,67.54
2018-02-18T10:44:45.664Z,67.11
2018-02-18T10:47:13.296Z,66.44
2018-02-18T10:49:40.954Z,64.94
2018-02-18T10:52:08.591Z,65.09
2018-02-18T10:54:36.223Z,64.52
2018-02-18T10:57:03.839Z,63.54
2018-02-18T10:59:31.529Z,63.56
2018-02-18T11:01:59.152Z,63.92
2018-02-18T11:04:29.391Z,61.92
2018-02-18T11:06:57.017Z,61.72
2018-02-18T11:09:24.660Z,61.49
2018-02-18T11:11:52.307Z,61.45
2018-02-18T11:14:19.991Z,60.14
2018-02-18T11:16:47.619Z,60.01
2018-02-18T11:19:15.239Z,60.24
2018-02-18T11:21:42.890Z,60.04
2018-02-18T11:24:10.489Z,59.56
2018-02-18T11:26:38.128Z,60.22
2018-02-18T11:29:06.548Z,59.14
2018-02-18T11:31:34.208Z,59.10
2018-02-18T11:34:01.872Z,58.52
2018-02-18T11:36:29.515Z,57.64
2018-02-18T11:38:57.280Z,57.38
2018-02-18T11:41:24.931Z,56.56
2018-02-18T11:43:52.539Z,56.13
2018-02-18T11:46:20.186Z,54.67
2018-02-18T11:48:47.800Z,54.28
2018-02-18T11:51:15.432Z,53.44
2018-02-18T11:53:43.069Z,53.32
2018-02-18T11:56:10.707Z,54.09
2018-02-18T11:58:38.403Z,54.83
2018-02-18T12:01:06.040Z,54.51
2018-02-18T12:03:33.638Z,54.20
2018-02-18T12:06:01.292Z,54.78
2018-02-18T12:08:28.966Z,54.78
2018-02-18T12:10:56.619Z,54.65
2018-02-18T12:13:24.320Z,54.38
2018-02-18T12:15:51.968Z,55.23
2018-02-18T12:18:19.590Z,55.30
2018-02-18T12:20:47.240Z,54.10
2018-02-18T12:23:14.869Z,52.22
2018-02-18T12:25:42.738Z,51.34
2018-02-18T12:28:10.359Z,51.38
2018-02-18T12:30:38.027Z,53.46
2018-02-18T12:33:05.664Z,52.11
2018-02-18T12:35:34.394Z,49.36
2018-02-18T12:38:02.027Z,50.18
2018-02-18T12:40:30.379Z,49.62
2018-02-18T12:42:58.064Z,51.54
2018-02-18T12:45:25.739Z,51.50
2018-02-18T12:47:53.421Z,51.14
2018-02-18T12:50:21.066Z,52.00
2018-02-18T12:52:48.672Z,51.25
2018-02-18T12:55:16.318Z,50.26
2018-02-18T12:57:43.976Z,48.83
2018-02-18T13:00:12.401Z,48.81
2018-02-18T13:02:40.046Z,48.87
2018-02-18T13:05:07.720Z,48.70
2018-02-18T13:07:35.398Z,48.79
2018-02-18T13:10:03.078Z,48.36
2018-02-18T13:12:30.666Z,48.58
2018-02-18T13:14:58.289Z,47.96
2018-02-18T13:17:25.920Z,46.19
2018-02-18T13:19:53.559Z,46.17
2018-02-18T13:22:21.185Z,46.56
2018-02-18T13:24:48.813Z,46.27
2018-02-18T13:27:16.411Z,45.32
2018-02-18T13:29:44.818Z,45.38
2018-02-18T13:32:12.443Z,45.69
2018-02-18T13:34:40.123Z,44.67
2018-02-18T13:37:07.711Z,44.24
2018-02-18T13:39:35.372Z,44.35
2018-02-18T13:42:02.964Z,44.54
2018-02-18T13:44:30.590Z,43.95
2018-02-18T13:46:58.203Z,43.25
2018-02-18T13:49:25.854Z,43.38
2018-02-18T13:51:53.571Z,43.89
2018-02-18T13:54:21.222Z,42.95
2018-02-18T13:56:48.828Z,43.86
2018-02-18T13:59:16.461Z,43.62
2018-02-18T14:01:44.019Z,43.91
2018-02-18T14:04:11.667Z,44.32
2018-02-18T14:06:39.275Z,45.97
2018-02-18T14:09:06.919Z,45.92
2018-02-18T14:11:34.522Z,44.93
2018-02-18T14:14:03.690Z,44.27
2018-02-18T14:16:31.340Z,44.16
2018-02-18T14:18:58.974Z,44.00
2018-02-18T14:21:26.911Z,44.80
2018-02-18T14:23:54.518Z,44.26
2018-02-18T14:26:22.170Z,42.93
2018-02-18T14:28:49.774Z,40.86
2018-02-18T14:31:17.410Z,42.04
2018-02-18T14:33:45.018Z,43.57
2018-02-18T14:36:12.679Z,44.46
2018-02-18T14:38:40.311Z,45.21
2018-02-18T14:41:07.934Z,47.79
2018-02-18T14:43:47.410Z,47.21
2018-02-18T14:46:26.806Z,47.82
2018-02-18T14:49:06.247Z,48.72
2018-02-18T14:51:45.632Z,49.47
2018-02-18T14:57:33.046Z,51.27
2018-02-18T15:00:00.674Z,51.47
2018-02-18T15:02:28.292Z,52.31
2018-02-18T15:04:55.927Z,52.06
2018-02-18T15:07:23.590Z,51.75
2018-02-18T15:09:51.212Z,51.84
2018-02-18T15:12:18.811Z,52.30
2018-02-18T15:14:46.458Z,51.90
2018-02-18T15:17:14.077Z,51.97
2018-02-18T15:19:41.707Z,51.87
2018-02-18T15:22:09.330Z,51.57
2018-02-18T15:24:36.972Z,51.62
2018-02-18T15:27:04.571Z,51.89
2018-02-18T15:29:32.179Z,51.93
2018-02-18T15:31:59.800Z,51.81
2018-02-18T15:34:27.395Z,52.33
2018-02-18T15:36:54.995Z,52.69
2018-02-18T15:39:22.651Z,52.35
2018-02-18T15:41:50.308Z,52.98
2018-02-18T15:44:18.005Z,53.27
2018-02-18T15:46:45.654Z,53.55
2018-02-18T15:49:13.306Z,53.35
2018-02-18T15:51:40.953Z,52.92
2018-02-18T15:54:08.556Z,53.24
2018-02-18T15:56:36.204Z,53.66
2018-02-18T15:59:03.828Z,53.21
2018-02-18T16:01:31.502Z,52.97
2018-02-18T16:03:59.269Z,52.73
2018-02-18T16:06:27.035Z,52.85
2018-02-18T16:08:54.625Z,53.68
2018-02-18T16:11:22.332Z,54.67
2018-02-18T16:13:49.919Z,53.80
2018-02-18T16:16:17.556Z,54.28
2018-02-18T16:18:45.168Z,53.86
2018-02-18T16:21:12.791Z,54.00
2018-02-18T16:23:40.410Z,54.20
2018-02-18T16:26:08.055Z,53.87
2018-02-18T16:28:35.654Z,54.11
2018-02-18T16:31:03.272Z,54.65
2018-02-18T16:33:30.879Z,54.80
2018-02-18T16:35:58.510Z,54.76
2018-02-18T16:38:26.111Z,54.48
2018-02-18T16:40:53.795Z,54.63
2018-02-18T16:43:21.399Z,55.14
2018-02-18T16:45:49.063Z,55.51
2018-02-18T16:48:16.667Z,55.36
2018-02-18T16:50:44.309Z,55.92
2018-02-18T16:53:11.920Z,56.21
2018-02-18T16:55:39.571Z,56.57
2018-02-18T16:58:07.183Z,56.67
2018-02-18T17:00:34.810Z,57.38
2018-02-18T17:03:02.415Z,57.70
2018-02-18T17:05:30.040Z,57.75
2018-02-18T17:07:57.671Z,57.76
2018-02-18T17:10:25.321Z,58.31
2018-02-18T17:12:52.943Z,58.54
2018-02-18T17:15:20.594Z,58.91
2018-02-18T17:17:48.208Z,59.28
2018-02-18T17:20:15.873Z,59.40
2018-02-18T17:22:43.481Z,60.05
2018-02-18T17:25:11.228Z,60.47
2018-02-18T17:27:38.833Z,60.90
2018-02-18T17:30:06.446Z,61.21
2018-02-18T17:32:34.104Z,61.39
2018-02-18T17:35:01.758Z,61.60
2018-02-18T17:37:29.370Z,62.01
2018-02-18T17:39:57.075Z,62.01
2018-02-18T17:42:24.688Z,62.17
2018-02-18T17:44:52.354Z,62.22
2018-02-18T17:47:20.046Z,62.37
2018-02-18T17:49:47.701Z,62.54
2018-02-18T17:52:15.548Z,62.75
2018-02-18T17:54:43.167Z,63.37
2018-02-18T17:57:10.797Z,63.63
2018-02-18T17:59:38.414Z,63.70
2018-02-18T18:02:06.046Z,63.90
2018-02-18T18:04:33.668Z,63.98
2018-02-18T18:07:01.436Z,64.21
2018-02-18T18:09:29.034Z,64.31
2018-02-18T18:11:56.678Z,64.07
2018-02-18T18:14:24.285Z,64.22
2018-02-18T18:16:51.949Z,64.46
2018-02-18T18:19:19.555Z,64.26
2018-02-18T18:21:47.225Z,64.33
2018-02-18T18:24:14.808Z,64.34
2018-02-18T18:26:42.448Z,64.47
2018-02-18T18:29:10.064Z,64.62
2018-02-18T18:31:37.705Z,64.89
2018-02-18T18:34:05.311Z,64.89
2018-02-18T18:36:32.945Z,65.01
2018-02-18T18:39:00.555Z,65.20
2018-02-18T18:41:28.185Z,65.41
2018-02-18T18:43:55.820Z,65.72
2018-02-18T18:46:23.451Z,65.76
2018-02-18T18:48:51.075Z,65.74
2018-02-18T18:51:18.731Z,65.93
2018-02-18T18:53:46.343Z,66.13
2018-02-18T18:56:13.991Z,66.49
2018-02-18T18:58:41.598Z,66.63
2018-02-18T19:01:09.242Z,66.89
2018-02-18T19:03:36.851Z,67.00
2018-02-18T19:06:04.488Z,67.31
2018-02-18T19:08:32.100Z,67.70
2018-02-18T19:10:59.738Z,68.03
2018-02-18T19:13:27.335Z,68.45
2018-02-18T19:15:54.986Z,68.70
2018-02-18T19:18:22.657Z,68.84
2018-02-18T19:20:50.277Z,68.81
2018-02-18T19:23:17.889Z,68.87
2018-02-18T19:25:45.542Z,68.80
2018-02-18T19:28:13.139Z,68.99
2018-02-18T19:30:40.776Z,69.25
2018-02-18T19:33:08.395Z,70.01
2018-02-18T19:35:36.032Z,70.65
2018-02-18T19:38:03.667Z,70.85
2018-02-18T19:40:31.340Z,71.35
2018-02-18T19:42:58.951Z,71.78
2018-02-18T19:45:26.600Z,72.21
2018-02-18T19:47:54.221Z,72.32
2018-02-18T19:50:21.899Z,72.30
2018-02-18T19:52:49.550Z,72.25
2018-02-18T19:55:17.235Z,72.34
2018-02-18T19:57:44.850Z,72.65
2018-02-18T20:00:12.530Z,72.96
2018-02-18T20:02:40.146Z,73.09
2018-02-18T20:05:07.840Z,73.14
2018-02-18T20:07:35.469Z,73.06
2018-02-18T20:10:03.339Z,73.01
2018-02-18T20:12:30.983Z,72.88
2018-02-18T20:14:58.672Z,72.75
2018-02-18T20:17:26.287Z,72.74
2018-02-18T20:19:54.180Z,73.21
2018-02-18T20:22:21.783Z,73.27
2018-02-18T20:24:49.418Z,73.28
2018-02-18T20:27:17.205Z,73.61
2018-02-18T20:29:44.843Z,74.08
2018-02-18T20:32:12.474Z,74.35
2018-02-18T20:34:40.184Z,74.50
2018-02-18T20:37:08.021Z,74.63
2018-02-18T20:39:35.651Z,74.33
2018-02-18T20:42:03.317Z,74.19
2018-02-18T20:44:31.001Z,74.47
2018-02-18T20:46:58.700Z,74.29
2018-02-18T20:49:26.331Z,74.03
2018-02-18T20:51:53.973Z,73.85
2018-02-18T20:54:21.573Z,74.07
2018-02-18T20:56:49.226Z,74.21
2018-02-18T20:59:16.843Z,74.32
2018-02-18T21:01:44.513Z,74.22
2018-02-18T21:04:12.187Z,74.20
2018-02-18T21:06:39.848Z,74.28
2018-02-18T21:09:07.608Z,74.20
2018-02-18T21:11:35.253Z,74.07
2018-02-18T21:14:02.868Z,74.02
2018-02-18T21:16:30.492Z,74.31
2018-02-18T21:18:58.090Z,74.69
2018-02-18T21:21:25.827Z,75.29
2018-02-18T21:23:53.422Z,75.21
2018-02-18T21:26:21.078Z,74.98
2018-02-18T21:28:48.679Z,74.68
2018-02-18T21:31:16.339Z,74.89
2018-02-18T21:33:44.137Z,74.99
2018-02-18T21:36:11.750Z,75.03
2018-02-18T21:38:39.488Z,74.96
2018-02-18T21:41:07.156Z,74.91
2018-02-18T21:43:34.920Z,74.80
2018-02-18T21:46:02.584Z,75.02
2018-02-18T21:48:30.296Z,74.81
2018-02-18T21:50:58.018Z,75.02
2018-02-18T21:53:25.682Z,75.37
2018-02-18T21:55:53.363Z,75.38
2018-02-18T21:58:21.111Z,74.96
2018-02-18T22:00:48.866Z,75.42
2018-02-18T22:03:16.578Z,75.88
2018-02-18T22:05:44.303Z,76.14
2018-02-18T22:08:12.095Z,76.60
2018-02-18T22:10:39.816Z,76.63
2018-02-18T22:13:07.634Z,76.54
2018-02-18T22:15:35.320Z,76.57
2018-02-18T22:18:03.055Z,76.57
2018-02-18T22:20:30.778Z,76.81
2018-02-18T22:22:58.648Z,76.98
2018-02-18T22:25:26.415Z,76.71
2018-02-18T22:27:54.224Z,76.54
2018-02-18T22:30:22.130Z,76.20
2018-02-18T22:32:49.965Z,75.58
2018-02-18T22:35:17.704Z,75.61
2018-02-18T22:37:45.532Z,75.64
2018-02-18T22:40:13.248Z,75.49
2018-02-18T22:42:40.920Z,75.62
2018-02-18T22:45:08.599Z,75.69
2018-02-18T22:47:36.230Z,75.83
2018-02-18T22:50:03.927Z,77.90
2018-02-18T22:52:31.570Z,85.66
2018-02-18T22:54:59.171Z,78.37
2018-02-18T22:57:26.789Z,75.84
2018-02-18T22:59:54.394Z,75.77
2018-02-18T23:02:22.035Z,76.32
2018-02-18T23:04:49.735Z,76.43
2018-02-18T23:07:17.557Z,76.32
2018-02-18T23:09:45.147Z,75.88
2018-02-18T23:12:12.779Z,76.44
2018-02-18T23:14:40.471Z,77.47
2018-02-18T23:17:08.190Z,78.27
2018-02-18T23:19:35.865Z,78.81
2018-02-18T23:22:03.624Z,79.21
2018-02-18T23:24:31.303Z,79.72
2018-02-18T23:26:59.055Z,80.09
2018-02-18T23:29:26.742Z,80.48
2018-02-18T23:31:54.459Z,80.70
2018-02-18T23:34:22.122Z,80.95
2018-02-18T23:36:49.818Z,81.24
2018-02-18T23:39:17.614Z,81.52
2018-02-18T23:41:45.289Z,81.71
2018-02-18T23:44:13.004Z,81.37
2018-02-18T23:46:40.699Z,81.54
2018-02-18T23:49:08.419Z,81.23
2018-02-18T23:51:36.099Z,81.22
2018-02-18T23:54:03.855Z,81.32
2018-02-18T23:56:31.534Z,81.56
2018-02-18T23:58:59.268Z,81.71
